createdAt,value
2023-05-01T00:00:11.393Z,241.50
2023-05-01T00:01:11.265Z,245.86
2023-05-01T00:02:11.285Z,253.39
2023-05-01T00:03:11.447Z,250.45
2023-05-01T00:04:11.519Z,246.58
2023-05-01T00:05:11.594Z,245.54
2023-05-01T00:06:11.425Z,245.02
2023-05-01T00:07:11.278Z,224.72
2023-05-01T00:08:11.238Z,213.30
2023-05-01T00:09:11.228Z,208.09
2023-05-01T00:10:11.320Z,221.84
2023-05-01T00:11:11.188Z,242.89
2023-05-01T00:12:11.194Z,250.31
2023-05-01T00:13:11.177Z,250.00
2023-05-01T00:14:11.176Z,248.04
2023-05-01T00:15:11.181Z,250.00
2023-05-01T00:16:11.175Z,250.00
2023-05-01T00:17:11.174Z,259.17
2023-05-01T00:18:11.206Z,254.28
2023-05-01T00:19:11.158Z,254.03
2023-05-01T00:20:11.201Z,247.69
2023-05-01T00:21:11.244Z,249.38
2023-05-01T00:22:11.265Z,246.86
2023-05-01T00:23:11.300Z,249.39
2023-05-01T00:24:11.369Z,248.85
2023-05-01T00:25:11.404Z,249.20
2023-05-01T00:26:11.464Z,249.69
2023-05-01T00:27:11.470Z,248.40
2023-05-01T00:28:11.488Z,246.11
2023-05-01T00:29:11.510Z,238.65
2023-05-01T00:30:11.520Z,229.76
2023-05-01T00:31:11.486Z,218.39
2023-05-01T00:32:11.644Z,219.85
2023-05-01T00:33:11.521Z,220.12
2023-05-01T00:34:11.514Z,220.16
2023-05-01T00:35:11.934Z,220.06
2023-05-01T00:36:12.361Z,195.76
2023-05-01T00:37:11.444Z,177.63
2023-05-01T00:38:11.438Z,169.22
2023-05-01T00:39:11.480Z,165.55
2023-05-01T00:40:11.425Z,163.05
2023-05-01T00:41:11.429Z,162.77
2023-05-01T00:42:11.445Z,164.78
2023-05-01T00:43:11.404Z,167.76
2023-05-01T00:44:11.378Z,163.19
2023-05-01T00:45:12.002Z,163.26
2023-05-01T00:46:11.401Z,164.20
2023-05-01T00:47:11.397Z,167.81
2023-05-01T00:48:11.426Z,173.85
2023-05-01T00:49:11.378Z,182.76
2023-05-01T00:50:11.346Z,184.73
2023-05-01T00:51:11.368Z,193.06
2023-05-01T00:52:11.354Z,202.50
2023-05-01T00:53:11.311Z,216.78
2023-05-01T00:54:11.413Z,228.96
2023-05-01T00:55:11.414Z,245.29
2023-05-01T00:56:11.463Z,250.00
2023-05-01T00:57:11.508Z,245.09
2023-05-01T00:58:12.393Z,233.90
2023-05-01T00:59:11.502Z,211.56
2023-05-01T01:00:11.474Z,194.47
2023-05-01T01:01:11.499Z,183.72
2023-05-01T01:02:11.511Z,190.15
2023-05-01T01:03:11.441Z,197.41
2023-05-01T01:04:11.481Z,209.85
2023-05-01T01:05:11.469Z,214.34
2023-05-01T01:06:11.456Z,212.32
2023-05-01T01:07:11.476Z,217.03
2023-05-01T01:08:11.451Z,224.73
2023-05-01T01:09:11.474Z,243.58
2023-05-01T01:10:11.600Z,250.00
2023-05-01T01:11:11.554Z,250.00
2023-05-01T01:12:11.610Z,244.09
2023-05-01T01:13:11.654Z,236.70
2023-05-01T01:14:11.711Z,230.83
2023-05-01T01:15:11.826Z,227.29
2023-05-01T01:16:11.852Z,220.49
2023-05-01T01:17:11.981Z,210.75
2023-05-01T01:18:11.881Z,194.99
2023-05-01T01:19:11.901Z,189.91
2023-05-01T01:20:11.925Z,196.51
2023-05-01T01:21:11.943Z,197.27
2023-05-01T01:22:12.524Z,203.08
2023-05-01T01:23:11.810Z,209.54
2023-05-01T01:24:11.852Z,209.60
2023-05-01T01:25:11.815Z,214.98
2023-05-01T01:26:11.812Z,226.39
2023-05-01T01:27:12.487Z,231.36
2023-05-01T01:28:11.961Z,230.83
2023-05-01T01:29:12.088Z,245.05
2023-05-01T01:30:12.038Z,244.43
2023-05-01T01:31:13.044Z,242.18
2023-05-01T01:32:12.208Z,246.00
2023-05-01T01:33:12.237Z,238.67
2023-05-01T01:34:12.278Z,231.20
2023-05-01T01:35:12.299Z,223.82
2023-05-01T01:36:12.433Z,217.64
2023-05-01T01:37:12.452Z,215.20
2023-05-01T01:38:12.508Z,211.42
2023-05-01T01:39:12.587Z,212.73
2023-05-01T01:40:12.536Z,214.32
2023-05-01T01:41:13.021Z,213.38
2023-05-01T01:42:12.964Z,212.85
2023-05-01T01:43:15.437Z,206.69
2023-05-01T01:44:12.762Z,194.10
2023-05-01T01:45:12.679Z,188.82
2023-05-01T01:46:12.692Z,181.14
2023-05-01T01:47:12.655Z,171.23
2023-05-01T01:48:12.733Z,168.14
2023-05-01T01:49:12.629Z,168.96
2023-05-01T01:50:12.631Z,169.20
2023-05-01T01:51:12.675Z,172.36
2023-05-01T01:52:12.652Z,179.76
2023-05-01T01:53:12.611Z,197.35
2023-05-01T01:54:12.621Z,228.69
2023-05-01T01:55:13.521Z,216.52
2023-05-01T01:56:12.619Z,195.19
2023-05-01T01:57:12.622Z,185.25
2023-05-01T01:58:12.585Z,183.84
2023-05-01T01:59:12.622Z,179.96
2023-05-01T02:00:12.655Z,177.62
2023-05-01T02:01:12.786Z,173.09
2023-05-01T02:02:12.784Z,169.40
2023-05-01T02:03:12.994Z,164.28
2023-05-01T02:04:12.993Z,171.03
2023-05-01T02:05:12.995Z,167.86
2023-05-01T02:06:13.972Z,168.28
2023-05-01T02:07:13.030Z,168.41
2023-05-01T02:08:13.027Z,169.34
2023-05-01T02:09:13.017Z,171.34
2023-05-01T02:10:13.005Z,175.15
2023-05-01T02:11:12.980Z,191.95
2023-05-01T02:12:13.016Z,216.73
2023-05-01T02:13:13.014Z,235.89
2023-05-01T02:14:13.038Z,253.05
2023-05-01T02:15:13.000Z,261.24
2023-05-01T02:16:13.020Z,261.58
2023-05-01T02:17:12.953Z,263.15
2023-05-01T02:18:12.919Z,269.79
2023-05-01T02:19:12.968Z,286.63
2023-05-01T02:20:13.936Z,298.93
2023-05-01T02:21:12.953Z,299.38
2023-05-01T02:22:12.945Z,301.41
2023-05-01T02:23:12.909Z,299.19
2023-05-01T02:24:12.946Z,292.77
2023-05-01T02:25:12.907Z,297.58
2023-05-01T02:26:12.909Z,289.75
2023-05-01T02:27:12.879Z,275.57
2023-05-01T02:28:12.883Z,261.08
2023-05-01T02:29:12.887Z,249.62
2023-05-01T02:30:12.887Z,247.00
2023-05-01T02:31:12.938Z,244.93
2023-05-01T02:32:12.898Z,246.27
2023-05-01T02:33:12.956Z,249.68
2023-05-01T02:34:13.019Z,250.00
2023-05-01T02:35:13.056Z,249.94
2023-05-01T02:36:13.125Z,249.17
2023-05-01T02:37:13.215Z,245.98
2023-05-01T02:38:13.212Z,240.99
2023-05-01T02:39:13.206Z,235.05
2023-05-01T02:40:13.917Z,230.37
2023-05-01T02:41:13.308Z,226.84
2023-05-01T02:42:13.331Z,228.43
2023-05-01T02:43:13.403Z,229.41
2023-05-01T02:44:13.433Z,229.89
2023-05-01T02:45:13.468Z,231.35
2023-05-01T02:46:13.570Z,232.45
2023-05-01T02:47:13.626Z,232.14
2023-05-01T02:48:13.616Z,230.32
2023-05-01T02:49:13.555Z,227.21
2023-05-01T02:50:13.506Z,220.45
2023-05-01T02:51:13.530Z,216.34
2023-05-01T02:52:13.473Z,213.45
2023-05-01T02:53:13.482Z,213.21
2023-05-01T02:54:13.485Z,213.92
2023-05-01T02:55:13.529Z,213.03
2023-05-01T02:56:13.627Z,209.84
2023-05-01T02:57:13.680Z,205.26
2023-05-01T02:58:13.740Z,204.13
2023-05-01T02:59:13.832Z,208.42
2023-05-01T03:00:14.088Z,207.32
2023-05-01T03:01:13.949Z,203.66
2023-05-01T03:02:13.913Z,201.50
2023-05-01T03:03:14.056Z,201.32
2023-05-01T03:04:14.088Z,205.09
2023-05-01T03:05:14.088Z,209.47
2023-05-01T03:06:14.360Z,221.43
2023-05-01T03:07:14.275Z,234.04
2023-05-01T03:08:14.298Z,252.25
2023-05-01T03:09:14.302Z,250.27
2023-05-01T03:10:14.344Z,249.36
2023-05-01T03:11:14.378Z,245.37
2023-05-01T03:12:14.455Z,241.63
2023-05-01T03:13:14.481Z,240.30
2023-05-01T03:14:14.564Z,237.44
2023-05-01T03:15:15.420Z,237.39
2023-05-01T03:16:14.737Z,242.58
2023-05-01T03:17:14.782Z,250.00
2023-05-01T03:18:15.433Z,251.95
2023-05-01T03:19:14.900Z,252.20
2023-05-01T03:20:14.949Z,250.00
2023-05-01T03:21:15.419Z,248.25
2023-05-01T03:22:15.084Z,245.80
2023-05-01T03:23:15.090Z,243.69
2023-05-01T03:24:15.240Z,241.05
2023-05-01T03:25:15.172Z,239.47
2023-05-01T03:26:15.254Z,238.45
2023-05-01T03:27:15.941Z,239.76
2023-05-01T03:28:15.402Z,241.39
2023-05-01T03:29:15.418Z,244.86
2023-05-01T03:30:15.439Z,250.00
2023-05-01T03:31:15.514Z,249.66
2023-05-01T03:32:15.610Z,247.99
2023-05-01T03:33:15.649Z,245.51
2023-05-01T03:34:15.660Z,241.35
2023-05-01T03:35:15.836Z,236.69
2023-05-01T03:36:15.938Z,231.71
2023-05-01T03:37:15.903Z,226.84
2023-05-01T03:38:15.963Z,223.75
2023-05-01T03:39:16.011Z,220.97
2023-05-01T03:40:16.043Z,219.88
2023-05-01T03:41:16.117Z,218.63
2023-05-01T03:42:16.433Z,219.92
2023-05-01T03:43:16.244Z,221.74
2023-05-01T03:44:16.311Z,217.20
2023-05-01T03:45:16.339Z,214.57
2023-05-01T03:46:16.533Z,214.63
2023-05-01T03:47:16.464Z,218.36
2023-05-01T03:48:16.501Z,223.50
2023-05-01T03:49:16.614Z,226.05
2023-05-01T03:50:16.620Z,230.38
2023-05-01T03:51:16.717Z,233.98
2023-05-01T03:52:16.781Z,237.90
2023-05-01T03:53:16.760Z,241.02
2023-05-01T03:54:16.803Z,239.89
2023-05-01T03:55:16.828Z,238.44
2023-05-01T03:56:16.816Z,237.81
2023-05-01T03:57:16.862Z,239.34
2023-05-01T03:58:16.801Z,242.76
2023-05-01T03:59:16.779Z,244.14
2023-05-01T04:00:16.794Z,241.81
2023-05-01T04:01:16.794Z,236.70
2023-05-01T04:02:16.854Z,228.87
2023-05-01T04:03:16.856Z,222.30
2023-05-01T04:04:16.885Z,213.60
2023-05-01T04:05:16.801Z,205.36
2023-05-01T04:06:16.897Z,201.95
2023-05-01T04:07:16.816Z,200.20
2023-05-01T04:08:16.836Z,200.29
2023-05-01T04:09:16.817Z,200.04
2023-05-01T04:10:16.820Z,201.16
2023-05-01T04:11:16.836Z,201.96
2023-05-01T04:12:16.814Z,202.97
2023-05-01T04:13:16.805Z,205.29
2023-05-01T04:14:16.795Z,205.46
2023-05-01T04:15:16.787Z,205.65
2023-05-01T04:16:16.892Z,204.50
2023-05-01T04:17:16.848Z,200.64
2023-05-01T04:18:16.874Z,199.37
2023-05-01T04:19:16.832Z,199.92
2023-05-01T04:20:16.832Z,200.87
2023-05-01T04:21:16.833Z,203.20
2023-05-01T04:22:16.819Z,204.41
2023-05-01T04:23:16.814Z,205.48
2023-05-01T04:24:16.820Z,206.69
2023-05-01T04:25:16.844Z,206.24
2023-05-01T04:26:16.832Z,212.94
2023-05-01T04:27:16.898Z,212.35
2023-05-01T04:28:16.842Z,208.68
2023-05-01T04:29:16.884Z,205.83
2023-05-01T04:30:16.944Z,204.90
2023-05-01T04:31:17.030Z,206.73
2023-05-01T04:32:17.069Z,208.53
2023-05-01T04:33:17.120Z,210.98
2023-05-01T04:34:17.174Z,217.29
2023-05-01T04:35:17.246Z,227.65
2023-05-01T04:36:17.291Z,233.73
2023-05-01T04:37:17.326Z,236.32
2023-05-01T04:38:17.359Z,235.47
2023-05-01T04:39:17.399Z,233.59
2023-05-01T04:40:17.387Z,230.73
2023-05-01T04:41:17.405Z,231.02
2023-05-01T04:42:17.425Z,230.70
2023-05-01T04:43:17.393Z,229.95
2023-05-01T04:44:17.437Z,227.64
2023-05-01T04:45:17.484Z,228.10
2023-05-01T04:46:17.510Z,227.30
2023-05-01T04:47:17.534Z,226.64
2023-05-01T04:48:17.619Z,225.88
2023-05-01T04:49:17.545Z,224.33
2023-05-01T04:50:17.570Z,222.40
2023-05-01T04:51:17.555Z,222.51
2023-05-01T04:52:17.564Z,220.72
2023-05-01T04:53:17.570Z,217.92
2023-05-01T04:54:17.577Z,218.90
2023-05-01T04:55:17.543Z,220.23
2023-05-01T04:56:17.571Z,222.15
2023-05-01T04:57:17.602Z,225.66
2023-05-01T04:58:17.632Z,228.72
2023-05-01T04:59:17.585Z,230.83
2023-05-01T05:00:17.617Z,232.66
2023-05-01T05:01:17.685Z,230.40
2023-05-01T05:02:17.622Z,229.69
2023-05-01T05:03:17.715Z,226.47
2023-05-01T05:04:17.630Z,223.07
2023-05-01T05:05:17.596Z,221.72
2023-05-01T05:06:17.648Z,217.15
2023-05-01T05:07:17.647Z,212.06
2023-05-01T05:08:17.703Z,205.60
2023-05-01T05:09:20.040Z,200.10
2023-05-01T05:10:17.620Z,199.74
2023-05-01T05:11:17.576Z,199.52
2023-05-01T05:12:17.621Z,199.37
2023-05-01T05:13:17.567Z,201.25
2023-05-01T05:14:17.553Z,204.07
2023-05-01T05:15:17.579Z,207.92
2023-05-01T05:16:17.604Z,205.90
2023-05-01T05:17:17.573Z,203.46
2023-05-01T05:18:17.715Z,202.01
2023-05-01T05:19:18.489Z,201.44
2023-05-01T05:20:17.551Z,200.87
2023-05-01T05:21:17.540Z,196.60
2023-05-01T05:22:17.523Z,193.48
2023-05-01T05:23:17.497Z,191.16
2023-05-01T05:24:17.515Z,187.96
2023-05-01T05:25:17.481Z,188.26
2023-05-01T05:26:17.473Z,184.85
2023-05-01T05:27:17.500Z,187.39
2023-05-01T05:28:17.489Z,191.23
2023-05-01T05:29:17.476Z,194.10
2023-05-01T05:30:17.472Z,197.82
2023-05-01T05:31:17.461Z,200.59
2023-05-01T05:32:17.501Z,202.95
2023-05-01T05:33:17.476Z,203.40
2023-05-01T05:34:17.452Z,202.66
2023-05-01T05:35:17.478Z,204.69
2023-05-01T05:36:17.428Z,207.21
2023-05-01T05:37:17.440Z,204.73
2023-05-01T05:38:17.396Z,201.00
2023-05-01T05:39:17.401Z,197.05
2023-05-01T05:40:17.401Z,190.96
2023-05-01T05:41:17.377Z,187.69
2023-05-01T05:42:17.373Z,186.65
2023-05-01T05:43:17.382Z,190.22
2023-05-01T05:44:17.370Z,192.29
2023-05-01T05:45:17.373Z,194.07
2023-05-01T05:46:17.387Z,193.09
2023-05-01T05:47:17.375Z,194.02
2023-05-01T05:48:17.434Z,189.04
2023-05-01T05:49:17.330Z,184.36
2023-05-01T05:50:17.330Z,182.20
2023-05-01T05:51:17.332Z,182.32
2023-05-01T05:52:17.652Z,182.70
2023-05-01T05:53:17.391Z,179.33
2023-05-01T05:54:17.483Z,176.55
2023-05-01T05:55:17.521Z,173.83
2023-05-01T05:56:17.577Z,169.82
2023-05-01T05:57:17.648Z,167.43
2023-05-01T05:58:17.668Z,166.08
2023-05-01T05:59:18.480Z,167.99
2023-05-01T06:00:17.831Z,170.03
2023-05-01T06:01:17.848Z,176.09
2023-05-01T06:02:17.927Z,180.99
2023-05-01T06:03:18.010Z,183.74
2023-05-01T06:04:18.003Z,184.08
2023-05-01T06:05:18.054Z,185.38
2023-05-01T06:06:18.128Z,183.85
2023-05-01T06:07:18.150Z,183.15
2023-05-01T06:08:18.183Z,179.35
2023-05-01T06:09:18.247Z,176.69
2023-05-01T06:10:18.309Z,174.72
2023-05-01T06:11:18.334Z,168.29
2023-05-01T06:12:18.388Z,166.60
2023-05-01T06:13:18.420Z,169.99
2023-05-01T06:14:18.474Z,170.05
2023-05-01T06:15:18.515Z,167.38
2023-05-01T06:16:18.579Z,162.46
2023-05-01T06:17:18.602Z,164.26
2023-05-01T06:18:18.668Z,162.46
2023-05-01T06:19:18.655Z,157.41
2023-05-01T06:20:18.719Z,149.68
2023-05-01T06:21:18.729Z,148.95
2023-05-01T06:22:18.761Z,145.56
2023-05-01T06:23:18.769Z,146.52
2023-05-01T06:24:18.847Z,151.22
2023-05-01T06:25:18.828Z,152.09
2023-05-01T06:26:18.895Z,154.43
2023-05-01T06:27:18.905Z,151.97
2023-05-01T06:28:18.942Z,150.74
2023-05-01T06:29:18.954Z,150.63
2023-05-01T06:30:18.989Z,151.94
2023-05-01T06:31:19.045Z,155.03
2023-05-01T06:32:19.043Z,153.67
2023-05-01T06:33:19.093Z,154.15
2023-05-01T06:34:19.089Z,153.61
2023-05-01T06:35:19.098Z,148.66
2023-05-01T06:36:19.119Z,145.74
2023-05-01T06:37:19.151Z,143.27
2023-05-01T06:38:19.192Z,139.26
2023-05-01T06:39:19.208Z,140.23
2023-05-01T06:40:19.228Z,140.41
2023-05-01T06:41:19.334Z,140.91
2023-05-01T06:42:19.198Z,139.01
2023-05-01T06:43:19.203Z,136.96
2023-05-01T06:44:19.218Z,136.54
2023-05-01T06:45:19.272Z,137.38
2023-05-01T06:46:19.301Z,138.05
2023-05-01T06:47:19.337Z,135.05
2023-05-01T06:48:19.299Z,134.86
2023-05-01T06:49:19.315Z,139.28
2023-05-01T06:50:19.357Z,143.60
2023-05-01T06:51:19.994Z,143.92
2023-05-01T06:52:19.379Z,138.30
2023-05-01T06:53:19.322Z,127.67
2023-05-01T06:54:19.325Z,124.29
2023-05-01T06:55:19.327Z,120.95
2023-05-01T06:56:19.372Z,120.50
2023-05-01T06:57:19.400Z,122.91
2023-05-01T06:58:23.894Z,124.14
2023-05-01T06:59:20.399Z,124.20
2023-05-01T07:00:19.401Z,124.47
2023-05-01T07:01:19.448Z,123.83
2023-05-01T07:02:20.240Z,116.13
2023-05-01T07:03:19.551Z,110.91
2023-05-01T07:04:19.342Z,101.76
2023-05-01T07:05:19.339Z,99.40
2023-05-01T07:06:19.372Z,100.29
2023-05-01T07:07:19.347Z,104.82
2023-05-01T07:08:19.330Z,104.92
2023-05-01T07:09:19.327Z,107.65
2023-05-01T07:10:19.315Z,111.42
2023-05-01T07:11:20.084Z,117.79
2023-05-01T07:12:19.304Z,124.52
2023-05-01T07:13:19.301Z,127.05
2023-05-01T07:14:19.292Z,125.71
2023-05-01T07:15:19.272Z,119.12
2023-05-01T07:16:19.302Z,121.17
2023-05-01T07:17:19.356Z,119.46
2023-05-01T07:18:19.258Z,121.42
2023-05-01T07:19:19.256Z,130.46
2023-05-01T07:20:19.264Z,133.55
2023-05-01T07:21:19.349Z,139.22
2023-05-01T07:22:19.506Z,141.55
2023-05-01T07:23:19.317Z,143.77
2023-05-01T07:24:19.332Z,141.58
2023-05-01T07:25:19.334Z,145.05
2023-05-01T07:26:19.376Z,146.12
2023-05-01T07:27:19.356Z,144.28
2023-05-01T07:28:19.473Z,142.89
2023-05-01T07:29:19.479Z,145.03
2023-05-01T07:30:19.472Z,149.04
2023-05-01T07:31:19.517Z,147.01
2023-05-01T07:32:19.549Z,147.07
2023-05-01T07:33:19.519Z,147.16
2023-05-01T07:34:19.586Z,147.93
2023-05-01T07:35:19.525Z,139.55
2023-05-01T07:36:19.561Z,137.87
2023-05-01T07:37:19.562Z,139.20
2023-05-01T07:38:19.577Z,136.45
2023-05-01T07:39:19.577Z,137.23
2023-05-01T07:40:19.613Z,138.62
2023-05-01T07:41:19.584Z,141.19
2023-05-01T07:42:19.604Z,140.75
2023-05-01T07:43:19.611Z,141.89
2023-05-01T07:44:19.622Z,135.05
2023-05-01T07:45:19.642Z,132.25
2023-05-01T07:46:19.693Z,131.66
2023-05-01T07:47:19.737Z,127.88
2023-05-01T07:48:19.811Z,129.67
2023-05-01T07:49:19.819Z,130.69
2023-05-01T07:50:19.846Z,127.56
2023-05-01T07:51:19.864Z,124.63
2023-05-01T07:52:19.855Z,123.43
2023-05-01T07:53:19.868Z,130.01
2023-05-01T07:54:19.922Z,136.53
2023-05-01T07:55:19.979Z,139.32
2023-05-01T07:56:20.002Z,138.79
2023-05-01T07:57:20.019Z,140.41
2023-05-01T07:58:20.065Z,145.38
2023-05-01T07:59:20.091Z,149.23
2023-05-01T08:00:20.135Z,157.97
2023-05-01T08:01:20.174Z,164.36
2023-05-01T08:02:20.273Z,161.21
2023-05-01T08:03:20.456Z,155.96
2023-05-01T08:04:20.464Z,151.91
2023-05-01T08:05:20.442Z,153.69
2023-05-01T08:06:20.498Z,153.94
2023-05-01T08:07:20.557Z,154.69
2023-05-01T08:08:20.675Z,156.58
2023-05-01T08:09:20.650Z,157.39
2023-05-01T08:10:20.699Z,153.09
2023-05-01T08:11:20.735Z,151.25
2023-05-01T08:12:20.819Z,152.81
2023-05-01T08:13:21.516Z,154.33
2023-05-01T08:14:20.900Z,150.98
2023-05-01T08:15:20.963Z,145.50
2023-05-01T08:16:22.106Z,145.00
2023-05-01T08:17:21.128Z,145.62
2023-05-01T08:18:21.361Z,145.19
2023-05-01T08:19:21.134Z,140.28
2023-05-01T08:20:21.174Z,137.08
2023-05-01T08:21:21.196Z,133.69
2023-05-01T08:22:21.238Z,126.89
2023-05-01T08:23:21.268Z,121.29
2023-05-01T08:24:21.308Z,124.35
2023-05-01T08:25:21.357Z,127.95
2023-05-01T08:26:22.876Z,130.65
2023-05-01T08:27:21.442Z,130.61
2023-05-01T08:28:21.546Z,129.43
2023-05-01T08:29:21.520Z,132.65
2023-05-01T08:30:21.542Z,132.31
2023-05-01T08:31:21.594Z,127.48
2023-05-01T08:32:21.657Z,120.80
2023-05-01T08:33:21.648Z,118.83
2023-05-01T08:34:21.699Z,120.84
2023-05-01T08:35:21.793Z,121.06
2023-05-01T08:36:21.751Z,117.26
2023-05-01T08:37:21.764Z,111.18
2023-05-01T08:38:21.783Z,107.12
2023-05-01T08:39:21.811Z,113.05
2023-05-01T08:40:21.836Z,113.25
2023-05-01T08:41:22.540Z,107.96
2023-05-01T08:42:21.910Z,100.33
2023-05-01T08:43:22.523Z,94.59
2023-05-01T08:44:22.009Z,94.40
2023-05-01T08:45:22.145Z,100.96
2023-05-01T08:46:22.050Z,107.99
2023-05-01T08:47:22.120Z,114.29
2023-05-01T08:48:22.070Z,110.11
2023-05-01T08:49:22.124Z,87.89
2023-05-01T08:50:23.133Z,76.88
2023-05-01T08:51:22.243Z,72.95
2023-05-01T08:52:22.278Z,76.97
2023-05-01T08:53:22.280Z,80.79
2023-05-01T08:54:22.386Z,72.50
2023-05-01T08:55:22.477Z,69.01
2023-05-01T08:56:22.444Z,69.67
2023-05-01T08:57:22.543Z,74.03
2023-05-01T08:58:22.509Z,58.51
2023-05-01T08:59:22.549Z,50.12
2023-05-01T09:00:22.643Z,40.60
2023-05-01T09:01:22.652Z,32.63
2023-05-01T09:02:22.728Z,31.22
2023-05-01T09:03:22.855Z,27.14
2023-05-01T09:04:22.758Z,24.92
2023-05-01T09:05:22.728Z,24.76
2023-05-01T09:06:22.822Z,26.67
2023-05-01T09:07:22.841Z,33.18
2023-05-01T09:08:22.978Z,40.11
2023-05-01T09:09:22.922Z,38.03
2023-05-01T09:10:23.003Z,32.82
2023-05-01T09:11:23.029Z,33.33
2023-05-01T09:12:23.056Z,31.09
2023-05-01T09:13:23.128Z,32.48
2023-05-01T09:14:23.126Z,38.60
2023-05-01T09:15:23.133Z,45.42
2023-05-01T09:16:23.242Z,52.70
2023-05-01T09:17:23.216Z,59.75
2023-05-01T09:18:23.221Z,59.69
2023-05-01T09:19:23.264Z,63.06
2023-05-01T09:20:23.246Z,64.03
2023-05-01T09:21:23.321Z,64.36
2023-05-01T09:22:23.284Z,69.01
2023-05-01T09:23:23.310Z,71.22
2023-05-01T09:24:23.323Z,77.30
2023-05-01T09:25:23.340Z,70.27
2023-05-01T09:26:23.320Z,58.99
2023-05-01T09:27:23.324Z,58.24
2023-05-01T09:28:23.351Z,62.03
2023-05-01T09:29:23.370Z,60.04
2023-05-01T09:30:23.352Z,53.47
2023-05-01T09:31:23.369Z,50.19
2023-05-01T09:32:23.523Z,40.18
2023-05-01T09:33:23.463Z,40.36
2023-05-01T09:34:23.387Z,37.86
2023-05-01T09:35:23.430Z,40.96
2023-05-01T09:36:23.413Z,37.21
2023-05-01T09:37:23.426Z,35.70
2023-05-01T09:38:23.431Z,30.72
2023-05-01T09:39:23.418Z,39.22
2023-05-01T09:40:23.423Z,44.53
2023-05-01T09:41:23.440Z,46.13
2023-05-01T09:42:23.463Z,32.95
2023-05-01T09:43:23.481Z,25.10
2023-05-01T09:44:23.478Z,26.41
2023-05-01T09:45:23.512Z,27.20
2023-05-01T09:46:23.502Z,28.51
2023-05-01T09:47:23.555Z,26.79
2023-05-01T09:48:23.511Z,25.00
2023-05-01T09:49:23.522Z,25.53
2023-05-01T09:50:23.515Z,24.86
2023-05-01T09:51:23.581Z,25.00
2023-05-01T09:52:23.599Z,25.24
2023-05-01T09:53:23.619Z,24.92
2023-05-01T09:54:23.641Z,25.07
2023-05-01T09:55:25.592Z,25.57
2023-05-01T09:56:23.684Z,25.25
2023-05-01T09:57:23.819Z,25.92
2023-05-01T09:58:23.747Z,27.93
2023-05-01T09:59:23.801Z,23.35
2023-05-01T10:00:23.911Z,27.00
2023-05-01T10:01:23.979Z,30.92
2023-05-01T10:02:24.163Z,32.00
2023-05-01T10:03:24.138Z,27.68
2023-05-01T10:04:24.130Z,25.34
2023-05-01T10:05:24.164Z,31.37
2023-05-01T10:06:24.308Z,37.90
2023-05-01T10:07:24.240Z,38.52
2023-05-01T10:08:24.313Z,29.01
2023-05-01T10:09:24.294Z,25.36
2023-05-01T10:10:24.361Z,25.97
2023-05-01T10:11:24.376Z,25.00
2023-05-01T10:12:24.384Z,23.54
2023-05-01T10:13:24.436Z,25.00
2023-05-01T10:14:24.507Z,24.82
2023-05-01T10:15:26.274Z,25.16
2023-05-01T10:16:24.629Z,24.72
2023-05-01T10:17:24.687Z,27.49
2023-05-01T10:18:24.661Z,25.00
2023-05-01T10:19:24.677Z,25.24
2023-05-01T10:20:24.729Z,27.86
2023-05-01T10:21:24.752Z,25.62
2023-05-01T10:22:24.775Z,24.49
2023-05-01T10:23:24.810Z,25.00
2023-05-01T10:24:24.837Z,23.24
2023-05-01T10:25:24.895Z,28.52
2023-05-01T10:26:24.895Z,27.82
2023-05-01T10:27:24.874Z,25.00
2023-05-01T10:28:24.892Z,25.00
2023-05-01T10:29:24.897Z,25.45
2023-05-01T10:30:24.916Z,25.25
2023-05-01T10:31:24.920Z,24.88
2023-05-01T10:32:24.968Z,15.70
2023-05-01T10:33:24.943Z,6.55
2023-05-01T10:34:26.359Z,3.53
2023-05-01T10:35:24.925Z,4.16
2023-05-01T10:36:24.953Z,10.46
2023-05-01T10:37:24.910Z,19.84
2023-05-01T10:38:24.906Z,27.70
2023-05-01T10:39:24.906Z,32.92
2023-05-01T10:40:24.876Z,35.59
2023-05-01T10:41:24.888Z,39.17
2023-05-01T10:42:24.904Z,45.20
2023-05-01T10:43:24.887Z,51.24
2023-05-01T10:44:24.918Z,53.69
2023-05-01T10:45:24.868Z,57.52
2023-05-01T10:46:24.931Z,63.22
2023-05-01T10:47:24.958Z,64.12
2023-05-01T10:48:24.830Z,60.51
2023-05-01T10:49:24.838Z,56.78
2023-05-01T10:50:24.839Z,63.46
2023-05-01T10:51:27.506Z,68.92
2023-05-01T10:52:24.785Z,68.93
2023-05-01T10:53:25.567Z,68.65
2023-05-01T10:54:24.854Z,70.60
2023-05-01T10:55:24.808Z,74.30
2023-05-01T10:56:24.776Z,75.00
2023-05-01T10:57:24.751Z,76.92
2023-05-01T10:58:24.774Z,75.21
2023-05-01T10:59:24.760Z,73.29
2023-05-01T11:00:24.762Z,75.12
2023-05-01T11:01:24.767Z,81.75
2023-05-01T11:02:24.847Z,83.97
2023-05-01T11:03:24.788Z,79.81
2023-05-01T11:04:24.853Z,68.20
2023-05-01T11:05:38.036Z,63.04
2023-05-01T11:06:25.841Z,63.17
2023-05-01T11:07:24.756Z,64.49
2023-05-01T11:08:24.772Z,66.91
2023-05-01T11:09:24.875Z,71.60
2023-05-01T11:10:24.669Z,74.92
2023-05-01T11:11:25.577Z,86.13
2023-05-01T11:12:24.757Z,85.31
2023-05-01T11:13:24.783Z,81.01
2023-05-01T11:14:24.642Z,72.56
2023-05-01T11:15:24.657Z,67.34
2023-05-01T11:16:24.696Z,61.73
2023-05-01T11:17:24.641Z,58.07
2023-05-01T11:18:24.699Z,54.61
2023-05-01T11:19:24.620Z,52.27
2023-05-01T11:20:24.622Z,54.45
2023-05-01T11:21:24.597Z,59.23
2023-05-01T11:22:24.583Z,61.40
2023-05-01T11:23:24.592Z,63.03
2023-05-01T11:24:24.574Z,61.42
2023-05-01T11:25:24.592Z,60.84
2023-05-01T11:26:24.572Z,58.80
2023-05-01T11:27:24.553Z,52.30
2023-05-01T11:28:24.566Z,48.37
2023-05-01T11:29:24.550Z,46.83
2023-05-01T11:30:24.545Z,49.24
2023-05-01T11:31:24.636Z,49.85
2023-05-01T11:32:24.739Z,55.61
2023-05-01T11:33:24.696Z,57.17
2023-05-01T11:34:24.741Z,53.31
2023-05-01T11:35:24.788Z,53.77
2023-05-01T11:36:24.829Z,57.30
2023-05-01T11:37:24.810Z,61.43
2023-05-01T11:38:24.844Z,59.80
2023-05-01T11:39:24.842Z,59.09
2023-05-01T11:40:24.865Z,64.68
2023-05-01T11:41:24.858Z,70.24
2023-05-01T11:42:24.881Z,70.36
2023-05-01T11:43:24.879Z,73.65
2023-05-01T11:44:24.875Z,80.20
2023-05-01T11:45:24.871Z,79.52
2023-05-01T11:46:24.959Z,82.60
2023-05-01T11:47:24.958Z,81.96
2023-05-01T11:48:24.933Z,79.22
2023-05-01T11:49:24.953Z,65.41
2023-05-01T11:50:24.960Z,64.33
2023-05-01T11:51:24.979Z,65.78
2023-05-01T11:52:25.044Z,64.08
2023-05-01T11:53:25.098Z,63.82
2023-05-01T11:54:25.173Z,66.31
2023-05-01T11:55:25.233Z,71.73
2023-05-01T11:56:27.049Z,74.73
2023-05-01T11:57:25.317Z,75.94
2023-05-01T11:58:25.366Z,74.54
2023-05-01T11:59:25.425Z,73.20
2023-05-01T12:00:25.452Z,71.62
2023-05-01T12:01:25.512Z,66.10
2023-05-01T12:02:25.762Z,64.86
2023-05-01T12:03:25.817Z,66.75
2023-05-01T12:04:26.517Z,68.15
2023-05-01T12:05:25.785Z,67.44
2023-05-01T12:06:25.856Z,73.87
2023-05-01T12:07:25.883Z,77.03
2023-05-01T12:08:25.986Z,84.28
2023-05-01T12:09:26.001Z,88.05
2023-05-01T12:10:26.056Z,93.12
2023-05-01T12:11:26.081Z,101.80
2023-05-01T12:12:26.118Z,106.00
2023-05-01T12:13:26.121Z,105.20
2023-05-01T12:14:26.121Z,108.78
2023-05-01T12:15:26.147Z,113.87
2023-05-01T12:16:26.177Z,111.26
2023-05-01T12:17:26.438Z,110.22
2023-05-01T12:18:26.355Z,109.44
2023-05-01T12:19:26.284Z,104.45
2023-05-01T12:20:26.363Z,93.63
2023-05-01T12:21:26.330Z,93.74
2023-05-01T12:22:26.322Z,89.58
2023-05-01T12:23:26.326Z,90.99
2023-05-01T12:24:26.357Z,93.45
2023-05-01T12:25:26.429Z,97.91
2023-05-01T12:26:26.475Z,102.55
2023-05-01T12:27:26.526Z,105.56
2023-05-01T12:28:26.613Z,105.10
2023-05-01T12:29:26.707Z,103.66
2023-05-01T12:30:26.726Z,96.05
2023-05-01T12:31:26.862Z,91.58
2023-05-01T12:32:26.867Z,93.90
2023-05-01T12:33:26.917Z,99.52
2023-05-01T12:34:26.968Z,108.01
2023-05-01T12:35:27.035Z,98.54